Time;durP1;ratioP1;P1;durP2;ratioP2;P2;SDS_P1;SDS_P2;PMS_P1;PMS_P2;Temp;Humidity;BMP_temperature;BMP_pressure;BME280_temperature;BME280_humidity;BME280_pressure;Samples;Min_cycle;Max_cycle;Signal;HPM_P1;HPM_P2
2023/06/22 00:02:15;;;;;;;45.72;37.63;;;20.90;99.90;;;;;;5094957;28;20072;-60
2023/06/22 00:04:40;;;;;;;45.83;34.45;;;20.90;99.90;;;;;;5095248;28;20445;-60
2023/06/22 00:07:06;;;;;;;51.33;36.00;;;20.90;99.90;;;;;;5095207;28;20024;-60
2023/06/22 00:09:33;;;;;;;45.53;37.10;;;20.90;99.90;;;;;;5092307;28;20035;-60
2023/06/22 00:11:59;;;;;;;46.70;35.80;;;20.80;99.90;;;;;;5074620;28;20083;-60
2023/06/22 00:14:25;;;;;;;47.33;34.63;;;20.80;99.90;;;;;;5074914;28;20017;-60
2023/06/22 00:16:55;;;;;;;43.55;34.58;;;20.80;99.90;;;;;;5074826;28;20093;-60
2023/06/22 00:19:21;;;;;;;41.95;35.45;;;20.80;99.90;;;;;;5074695;28;20043;-61
2023/06/22 00:21:52;;;;;;;45.90;36.15;;;20.80;99.90;;;;;;5074702;28;20028;-60
2023/06/22 00:24:21;;;;;;;42.88;33.92;;;20.70;99.90;;;;;;5074494;28;20147;-60
2023/06/22 00:26:50;;;;;;;47.75;35.33;;;20.80;99.90;;;;;;5074578;28;20032;-60
2023/06/22 00:29:18;;;;;;;48.65;36.05;;;20.70;99.90;;;;;;5074529;28;20163;-59
2023/06/22 00:31:44;;;;;;;41.80;34.28;;;20.70;99.90;;;;;;5074586;28;20027;-60
2023/06/22 00:34:10;;;;;;;47.38;36.17;;;20.70;99.90;;;;;;5074591;28;20024;-60
2023/06/22 00:36:36;;;;;;;44.10;35.90;;;20.60;99.90;;;;;;5074485;28;20052;-60
2023/06/22 00:39:03;;;;;;;42.40;36.13;;;20.60;99.90;;;;;;5073145;28;20086;-60
2023/06/22 00:41:30;;;;;;;46.22;37.35;;;20.60;99.90;;;;;;5073306;28;20112;-60
2023/06/22 00:43:57;;;;;;;43.55;36.42;;;20.50;99.90;;;;;;5073177;28;20060;-60
2023/06/22 00:46:24;;;;;;;44.67;35.13;;;20.60;99.90;;;;;;5073159;28;20032;-60
2023/06/22 00:48:51;;;;;;;43.70;36.08;;;20.50;99.90;;;;;;5071385;28;20052;-60
2023/06/22 00:51:23;;;;;;;45.42;35.78;;;20.50;99.90;;;;;;5072213;28;20068;-60
2023/06/22 00:53:51;;;;;;;43.10;35.30;;;20.50;99.90;;;;;;5055940;28;20048;-60
2023/06/22 00:56:19;;;;;;;44.83;35.97;;;20.50;99.90;;;;;;5043169;28;20038;-60
2023/06/22 00:58:47;;;;;;;44.97;37.20;;;20.50;99.90;;;;;;5043055;28;20150;-60
2023/06/22 01:01:14;;;;;;;47.85;38.33;;;20.50;99.90;;;;;;5009746;28;20039;-60
2023/06/22 01:03:40;;;;;;;47.83;37.10;;;20.50;99.90;;;;;;4969741;28;20103;-60
2023/06/22 01:06:16;;;;;;;48.67;37.13;;;20.50;99.90;;;;;;5012158;28;20140;-60
2023/06/22 01:09:01;;;;;;;106.97;52.90;;;20.40;99.90;;;;;;5023078;28;20045;-60
2023/06/22 01:11:36;;;;;;;80.78;48.33;;;20.50;99.90;;;;;;5014387;28;20053;-60
2023/06/22 01:14:08;;;;;;;71.68;45.28;;;20.40;99.90;;;;;;5031539;28;20380;-60
2023/06/22 01:16:38;;;;;;;60.17;41.72;;;20.50;99.90;;;;;;5005093;28;20152;-60
2023/06/22 01:19:44;;;;;;;50.80;37.33;;;20.50;99.90;;;;;;5040323;28;22939;-60
2023/06/22 01:22:15;;;;;;;61.70;40.40;;;20.50;99.90;;;;;;5033248;28;20037;-60
2023/06/22 01:25:06;;;;;;;56.53;40.28;;;20.50;99.90;;;;;;5068635;28;20037;-60
2023/06/22 01:27:41;;;;;;;56.30;39.17;;;20.60;99.90;;;;;;5035056;28;20049;-60
2023/06/22 01:30:10;;;;;;;62.60;41.65;;;20.60;99.90;;;;;;5063948;28;20048;-60
2023/06/22 01:32:38;;;;;;;70.18;44.53;;;20.60;99.90;;;;;;5066826;28;20131;-60
2023/06/22 01:35:08;;;;;;;61.33;43.47;;;20.60;99.90;;;;;;5032535;28;20049;-60
2023/06/22 01:37:36;;;;;;;54.00;39.63;;;20.60;99.90;;;;;;5042283;28;20071;-59
2023/06/22 01:40:07;;;;;;;61.13;41.95;;;20.60;99.90;;;;;;5030305;28;20049;-60
2023/06/22 01:42:34;;;;;;;48.20;37.13;;;20.70;99.90;;;;;;5042516;28;20041;-60
2023/06/22 01:45:00;;;;;;;44.67;36.50;;;20.60;99.90;;;;;;5029937;28;20083;-60
2023/06/22 01:47:27;;;;;;;47.88;37.70;;;20.70;99.90;;;;;;5025181;28;20033;-60
2023/06/22 01:49:53;;;;;;;46.53;37.88;;;20.70;99.90;;;;;;5035233;28;20045;-60
2023/06/22 01:52:23;;;;;;;48.40;39.17;;;20.70;99.90;;;;;;5062547;28;20076;-61
2023/06/22 01:54:49;;;;;;;49.45;38.38;;;20.60;99.90;;;;;;5061855;28;20060;-60
2023/06/22 01:57:15;;;;;;;50.70;38.90;;;20.60;99.90;;;;;;5024022;28;20045;-60
2023/06/22 02:00:04;;;;;;;47.05;38.97;;;20.60;99.90;;;;;;5016105;28;20049;-60
2023/06/22 02:02:54;;;;;;;45.58;37.17;;;20.60;99.90;;;;;;5041473;28;25469;-60
2023/06/22 02:05:22;;;;;;;44.60;37.17;;;20.60;99.90;;;;;;5058645;28;20037;-60
2023/06/22 02:08:16;;;;;;;41.78;35.88;;;20.60;99.90;;;;;;5059153;28;20292;-60
2023/06/22 02:10:43;;;;;;;44.13;36.15;;;20.60;99.90;;;;;;5047799;28;21332;-60
2023/06/22 02:13:10;;;;;;;43.97;36.92;;;20.70;99.90;;;;;;5043150;28;20049;-60
2023/06/22 02:15:37;;;;;;;43.42;36.13;;;20.60;99.90;;;;;;5054675;28;20063;-60
2023/06/22 02:18:03;;;;;;;45.78;36.55;;;20.60;99.90;;;;;;5004551;28;20472;-60
2023/06/22 02:20:29;;;;;;;46.53;36.78;;;20.50;99.90;;;;;;5055069;28;20110;-60
2023/06/22 02:22:56;;;;;;;43.92;36.25;;;20.50;99.90;;;;;;5055640;28;20401;-60
2023/06/22 02:25:22;;;;;;;45.30;36.30;;;20.50;99.90;;;;;;5057694;28;21570;-60
2023/06/22 02:27:48;;;;;;;37.65;33.17;;;20.40;99.90;;;;;;5017466;28;21345;-60
2023/06/22 02:30:16;;;;;;;43.80;35.55;;;20.40;99.90;;;;;;5010095;28;22451;-60
2023/06/22 02:32:43;;;;;;;41.63;34.20;;;20.40;99.90;;;;;;5026008;28;23275;-60
2023/06/22 02:35:10;;;;;;;39.42;32.60;;;20.40;99.90;;;;;;5053542;28;24651;-60
2023/06/22 02:37:41;;;;;;;42.78;34.35;;;20.30;99.90;;;;;;5055067;28;25340;-60
2023/06/22 02:40:08;;;;;;;44.05;35.30;;;20.30;99.90;;;;;;5009038;28;29165;-60
2023/06/22 02:42:35;;;;;;;46.42;35.25;;;20.20;99.90;;;;;;5005440;28;32427;-60
2023/06/22 02:45:01;;;;;;;44.90;34.38;;;20.20;99.90;;;;;;4971384;28;33211;-60
2023/06/22 02:47:27;;;;;;;44.22;35.75;;;20.20;99.90;;;;;;5017959;28;33853;-60
2023/06/22 02:49:54;;;;;;;40.03;33.38;;;20.20;99.90;;;;;;5015582;28;34693;-60
2023/06/22 02:52:20;;;;;;;45.15;37.85;;;20.10;99.90;;;;;;5005938;28;35435;-60
2023/06/22 02:54:46;;;;;;;44.15;35.10;;;20.10;99.90;;;;;;5029273;28;37041;-60
2023/06/22 02:57:13;;;;;;;49.50;40.30;;;20.10;99.90;;;;;;5023730;28;36134;-60
2023/06/22 02:59:41;;;;;;;46.20;37.20;;;20.10;99.90;;;;;;5014352;28;38203;-60
2023/06/22 03:02:11;;;;;;;40.92;35.50;;;20.10;99.90;;;;;;5001538;28;38171;-60
2023/06/22 03:04:37;;;;;;;42.47;35.70;;;20.10;99.90;;;;;;4977272;28;40889;-60
2023/06/22 03:07:04;;;;;;;44.17;35.92;;;20.10;99.90;;;;;;5003093;28;40890;-60
2023/06/22 03:09:31;;;;;;;43.33;36.88;;;20.20;99.90;;;;;;4956978;28;41578;-60
2023/06/22 03:11:57;;;;;;;44.67;37.50;;;20.10;99.90;;;;;;4986805;28;43154;-60
2023/06/22 03:14:27;;;;;;;44.58;36.55;;;20.20;99.90;;;;;;4943593;28;44800;-60
2023/06/22 03:16:53;;;;;;;46.97;36.70;;;20.20;99.90;;;;;;4971133;28;44974;-60
2023/06/22 03:19:21;;;;;;;48.67;38.78;;;20.20;99.90;;;;;;4986445;28;44908;-60
2023/06/22 03:21:48;;;;;;;43.92;35.28;;;20.20;99.90;;;;;;4976717;28;46916;-60
2023/06/22 03:24:14;;;;;;;43.10;36.38;;;20.30;99.90;;;;;;4991632;28;46989;-60
2023/06/22 03:26:40;;;;;;;47.55;38.50;;;20.20;99.90;;;;;;5024053;28;47820;-60
2023/06/22 03:29:06;;;;;;;49.67;37.50;;;20.20;99.90;;;;;;5037193;28;48020;-60
2023/06/22 03:31:34;;;;;;;49.47;39.45;;;20.20;99.90;;;;;;5005587;28;49945;-60
2023/06/22 03:34:00;;;;;;;47.92;39.35;;;20.30;99.90;;;;;;5012508;28;49891;-60
2023/06/22 03:36:26;;;;;;;48.40;39.65;;;20.30;99.90;;;;;;5035709;28;50046;-60
2023/06/22 03:38:52;;;;;;;46.22;38.67;;;20.30;99.90;;;;;;4996007;28;49225;-60
2023/06/22 03:41:18;;;;;;;46.75;38.35;;;20.30;99.90;;;;;;4990614;28;49601;-60
2023/06/22 03:43:44;;;;;;;51.42;40.72;;;20.30;99.90;;;;;;5004063;28;48773;-60
2023/06/22 03:46:10;;;;;;;48.95;41.10;;;20.20;99.90;;;;;;4934832;28;49741;-60
2023/06/22 03:48:36;;;;;;;54.45;42.05;;;20.20;99.90;;;;;;4996088;28;49251;-60
2023/06/22 03:51:03;;;;;;;57.85;41.40;;;20.20;99.90;;;;;;5009610;28;50310;-60
2023/06/22 03:53:29;;;;;;;51.95;39.53;;;20.30;99.90;;;;;;5001197;28;65252;-60
2023/06/22 03:55:55;;;;;;;51.45;41.38;;;20.40;99.90;;;;;;4959681;28;49881;-60
2023/06/22 03:58:22;;;;;;;56.00;42.67;;;20.50;99.90;;;;;;4991239;28;68047;-60
2023/06/22 04:00:50;;;;;;;53.47;41.88;;;20.50;99.90;;;;;;5003099;28;69813;-60
2023/06/22 04:03:20;;;;;;;53.80;41.85;;;20.50;99.90;;;;;;5010877;28;70256;-60
2023/06/22 04:05:47;;;;;;;51.53;42.30;;;20.50;99.90;;;;;;5026875;28;70585;-60
2023/06/22 04:08:14;;;;;;;49.70;40.72;;;20.50;99.90;;;;;;5020019;28;24842;-60
2023/06/22 04:10:40;;;;;;;55.03;40.92;;;20.60;99.90;;;;;;5024102;28;48445;-60
2023/06/22 04:13:06;;;;;;;55.45;42.15;;;20.70;99.90;;;;;;5006543;28;49211;-60
2023/06/22 04:15:32;;;;;;;54.50;42.20;;;20.80;99.90;;;;;;5011522;28;49189;-60
2023/06/22 04:17:58;;;;;;;56.20;44.10;;;20.80;99.90;;;;;;4997899;28;49290;-60
2023/06/22 04:20:25;;;;;;;58.95;43.08;;;20.90;99.90;;;;;;5004971;28;49738;-60
2023/06/22 04:22:53;;;;;;;56.85;44.05;;;21.10;99.90;;;;;;4993341;28;49360;-60
2023/06/22 04:25:20;;;;;;;50.78;41.15;;;21.10;99.90;;;;;;4983966;28;25030;-60
2023/06/22 04:27:47;;;;;;;51.38;40.85;;;21.20;99.90;;;;;;4994108;28;49328;-60
2023/06/22 04:30:15;;;;;;;48.97;39.40;;;21.10;99.90;;;;;;4998047;28;31834;-60
2023/06/22 04:32:40;;;;;;;48.00;39.00;;;21.20;99.90;;;;;;4994362;28;49097;-60
2023/06/22 04:35:07;;;;;;;52.97;40.35;;;21.30;99.90;;;;;;4988189;28;24843;-60
2023/06/22 04:37:34;;;;;;;62.00;41.17;;;21.40;99.90;;;;;;4997619;28;48918;-59
2023/06/22 04:40:00;;;;;;;62.47;40.80;;;21.40;99.90;;;;;;4988013;28;34046;-60
2023/06/22 04:42:27;;;;;;;53.65;39.90;;;21.40;99.90;;;;;;4971598;28;35095;-60
2023/06/22 04:44:53;;;;;;;50.30;38.83;;;21.50;99.90;;;;;;4990848;28;48156;-60
2023/06/22 04:47:19;;;;;;;52.65;40.10;;;21.50;99.90;;;;;;4988264;28;24874;-60
2023/06/22 04:49:45;;;;;;;56.03;41.55;;;21.60;99.90;;;;;;4974330;28;49673;-60
2023/06/22 04:52:12;;;;;;;57.05;40.47;;;21.60;99.90;;;;;;4994584;28;36289;-60
2023/06/22 04:54:47;;;;;;;53.83;40.45;;;21.70;99.90;;;;;;4989424;28;36675;-60
2023/06/22 04:57:14;;;;;;;54.85;39.85;;;21.80;99.90;;;;;;4995482;28;37677;-60
2023/06/22 04:59:41;;;;;;;53.47;41.50;;;21.90;99.90;;;;;;4964618;28;48271;-60
2023/06/22 05:02:08;;;;;;;61.15;42.95;;;22.00;99.90;;;;;;4982185;28;47346;-59
2023/06/22 05:04:38;;;;;;;58.38;42.08;;;22.00;99.90;;;;;;4990041;28;47629;-60
2023/06/22 05:07:04;;;;;;;55.03;42.03;;;22.10;99.90;;;;;;4980583;28;49732;-60
2023/06/22 05:09:30;;;;;;;59.53;41.78;;;22.20;99.90;;;;;;4985733;28;49880;-60
2023/06/22 05:11:56;;;;;;;57.42;42.08;;;22.30;99.90;;;;;;4985582;28;49521;-60
2023/06/22 05:14:23;;;;;;;55.78;41.45;;;22.40;99.90;;;;;;4992680;28;49958;-60
2023/06/22 05:16:51;;;;;;;55.60;41.35;;;22.40;99.90;;;;;;4955604;28;49383;-60
2023/06/22 05:19:18;;;;;;;55.25;41.28;;;22.50;99.90;;;;;;4972431;28;25460;-60
2023/06/22 05:21:44;;;;;;;47.10;37.40;;;22.60;99.90;;;;;;4982613;28;49746;-60
2023/06/22 05:24:10;;;;;;;52.25;40.20;;;22.70;99.90;;;;;;4958894;28;49982;-61
2023/06/22 05:26:36;;;;;;;55.03;41.92;;;22.70;99.90;;;;;;4974423;28;49225;-60
2023/06/22 05:29:03;;;;;;;58.63;40.40;;;22.90;99.90;;;;;;4983016;28;47565;-60
2023/06/22 05:31:29;;;;;;;65.50;43.95;;;23.00;99.90;;;;;;4978403;28;33845;-60
2023/06/22 05:33:56;;;;;;;61.25;42.47;;;23.10;99.90;;;;;;4982048;28;34816;-60
2023/06/22 05:36:25;;;;;;;52.55;41.15;;;23.20;99.90;;;;;;4902788;28;49332;-60
2023/06/22 05:38:52;;;;;;;51.15;41.45;;;23.40;99.90;;;;;;4936849;28;49022;-60
2023/06/22 05:41:18;;;;;;;58.28;41.67;;;23.40;99.90;;;;;;4950995;28;49254;-60
2023/06/22 05:43:44;;;;;;;55.03;42.17;;;23.50;99.90;;;;;;4971702;28;50037;-60
2023/06/22 05:46:10;;;;;;;57.80;39.72;;;23.60;99.90;;;;;;4991300;28;49092;-60
2023/06/22 05:48:36;;;;;;;54.38;40.72;;;23.70;99.90;;;;;;4983080;28;49500;-60
2023/06/22 05:51:03;;;;;;;60.53;42.53;;;23.80;99.90;;;;;;4987808;28;49927;-60
2023/06/22 05:53:29;;;;;;;57.95;40.22;;;23.80;99.90;;;;;;4982240;28;50055;-62
2023/06/22 05:55:55;;;;;;;66.90;41.10;;;23.90;99.90;;;;;;4995068;28;50046;-61
2023/06/22 05:58:21;;;;;;;55.88;40.85;;;24.00;99.90;;;;;;4978592;28;65932;-61
2023/06/22 06:00:48;;;;;;;63.42;41.28;;;24.10;99.90;;;;;;4983424;28;49954;-61
2023/06/22 06:08:35;;;;;;;47.97;37.80;;;24.50;99.90;;;;;;5053083;27;1889821;-61
2023/06/22 06:11:01;;;;;;;66.65;40.13;;;24.60;99.90;;;;;;5118761;27;20032;-61
2023/06/22 06:13:27;;;;;;;84.43;39.55;;;24.70;99.90;;;;;;5098334;27;20097;-62
2023/06/22 06:15:56;;;;;;;68.65;37.55;;;24.80;99.90;;;;;;5090943;28;20470;-62
2023/06/22 06:18:25;;;;;;;72.47;37.15;;;24.90;99.90;;;;;;5046438;28;20033;-61
2023/06/22 06:20:51;;;;;;;48.50;34.72;;;25.20;99.90;;;;;;5039526;28;20120;-61
2023/06/22 06:23:17;;;;;;;49.58;35.80;;;25.20;99.90;;;;;;5023034;28;20104;-61
2023/06/22 06:25:43;;;;;;;51.20;33.42;;;25.20;99.90;;;;;;5041218;28;20452;-62
2023/06/22 06:28:10;;;;;;;46.40;33.47;;;25.40;99.90;;;;;;5072975;28;20051;-61
2023/06/22 06:30:37;;;;;;;47.15;34.30;;;25.50;99.90;;;;;;5070658;28;20043;-61
2023/06/22 06:33:08;;;;;;;46.85;33.22;;;25.70;99.90;;;;;;5088347;28;20962;-62
2023/06/22 06:35:34;;;;;;;42.88;33.70;;;25.90;99.90;;;;;;5050870;28;20037;-62
2023/06/22 06:38:00;;;;;;;45.50;32.05;;;25.80;99.90;;;;;;5094339;28;20061;-62
2023/06/22 06:40:26;;;;;;;43.95;33.05;;;26.00;99.90;;;;;;5099195;28;20044;-62
2023/06/22 06:42:55;;;;;;;46.58;32.10;;;26.10;99.90;;;;;;5044096;28;20501;-62
2023/06/22 06:45:24;;;;;;;50.00;32.03;;;26.20;99.90;;;;;;5042572;28;20077;-62
2023/06/22 06:47:54;;;;;;;41.05;29.75;;;26.20;99.90;;;;;;5052919;28;20509;-62
2023/06/22 06:50:20;;;;;;;45.17;29.73;;;26.20;99.90;;;;;;5058662;28;21033;-62
2023/06/22 06:52:46;;;;;;;46.25;28.58;;;26.40;99.90;;;;;;5074690;28;20671;-63
2023/06/22 06:55:12;;;;;;;49.10;29.67;;;26.70;99.90;;;;;;5053542;28;20044;-62
2023/06/22 06:57:39;;;;;;;39.00;27.70;;;26.90;99.90;;;;;;5010695;28;20435;-62
2023/06/22 07:00:11;;;;;;;39.90;28.23;;;26.90;99.90;;;;;;5005613;28;20037;-62
2023/06/22 07:02:39;;;;;;;36.53;27.10;;;27.20;99.90;;;;;;5022061;28;20172;-62
2023/06/22 07:05:06;;;;;;;32.58;26.75;;;27.40;99.90;;;;;;5004144;28;20365;-62
2023/06/22 07:07:32;;;;;;;37.92;26.42;;;27.60;99.90;;;;;;4994737;28;20077;-62
2023/06/22 07:09:59;;;;;;;42.70;26.75;;;27.90;99.90;;;;;;5053949;28;20033;-62
2023/06/22 07:12:25;;;;;;;36.67;25.58;;;28.10;99.90;;;;;;4965108;28;20111;-62
2023/06/22 07:14:52;;;;;;;35.95;25.50;;;28.40;99.90;;;;;;5009598;28;20045;-62
2023/06/22 07:17:18;;;;;;;43.50;25.40;;;28.70;99.90;;;;;;4955435;28;20059;-62
2023/06/22 07:19:45;;;;;;;43.92;25.95;;;28.90;99.90;;;;;;5003751;28;20045;-62
2023/06/22 07:22:11;;;;;;;44.88;26.45;;;29.10;99.90;;;;;;5005418;28;20053;-62
2023/06/22 07:24:37;;;;;;;35.85;24.25;;;29.30;99.90;;;;;;5009069;28;20049;-63
2023/06/22 07:27:05;;;;;;;32.10;25.90;;;29.50;99.50;;;;;;5011843;28;20552;-63
2023/06/22 07:29:44;;;;;;;31.92;24.67;;;29.70;99.90;;;;;;5011409;28;20069;-62
2023/06/22 07:32:13;;;;;;;33.25;23.63;;;30.00;96.90;;;;;;4976190;28;20508;-63
2023/06/22 07:34:40;;;;;;;37.58;24.20;;;30.00;95.70;;;;;;4956937;28;20079;-63
2023/06/22 07:37:06;;;;;;;35.72;24.25;;;30.30;95.00;;;;;;4932942;28;20046;-63
2023/06/22 07:39:32;;;;;;;41.58;25.83;;;30.40;93.90;;;;;;4982706;28;20116;-63
2023/06/22 07:41:58;;;;;;;37.83;25.20;;;30.40;92.90;;;;;;4979472;28;20101;-63
2023/06/22 07:44:24;;;;;;;31.13;23.30;;;30.70;94.90;;;;;;5003803;28;20138;-63
2023/06/22 07:46:50;;;;;;;30.02;23.05;;;31.00;92.30;;;;;;5029776;28;20822;-62
2023/06/22 07:49:17;;;;;;;28.05;22.83;;;31.10;92.60;;;;;;5031549;28;21142;-63
2023/06/22 07:51:43;;;;;;;28.17;21.48;;;31.40;93.00;;;;;;5039215;28;23049;-63
2023/06/22 07:54:10;;;;;;;35.65;23.15;;;31.70;90.80;;;;;;5009622;28;23465;-62
2023/06/22 07:56:37;;;;;;;31.35;21.00;;;31.50;90.40;;;;;;4956421;28;25011;-63
2023/06/22 07:59:03;;;;;;;29.30;20.52;;;31.90;90.00;;;;;;4951405;28;24775;-63
2023/06/22 08:01:30;;;;;;;29.42;19.42;;;32.20;86.80;;;;;;4970775;28;27118;-63
2023/06/22 08:03:59;;;;;;;25.17;19.80;;;32.40;85.60;;;;;;4983473;28;27347;-63
2023/06/22 08:06:25;;;;;;;28.65;20.40;;;32.50;77.60;;;;;;4955290;28;29028;-62
2023/06/22 08:08:52;;;;;;;23.13;19.50;;;32.70;81.20;;;;;;4969301;28;29237;-62
2023/06/22 08:11:18;;;;;;;27.83;20.88;;;33.00;79.30;;;;;;4972225;28;25519;-62
2023/06/22 08:13:44;;;;;;;28.48;19.88;;;33.00;76.30;;;;;;4991188;28;30614;-63
2023/06/22 08:16:10;;;;;;;24.63;18.80;;;33.20;78.90;;;;;;5003851;28;31148;-62
2023/06/22 08:18:36;;;;;;;31.42;18.65;;;32.90;76.80;;;;;;4998103;28;24772;-63
2023/06/22 08:21:02;;;;;;;31.65;19.88;;;33.20;77.10;;;;;;4977845;28;32552;-62
2023/06/22 08:23:29;;;;;;;27.58;19.48;;;33.10;77.30;;;;;;4993254;28;35010;-62
2023/06/22 08:26:04;;;;;;;26.00;19.98;;;32.60;72.40;;;;;;4993775;28;35345;-62
2023/06/22 08:28:30;;;;;;;31.77;20.02;;;33.10;73.70;;;;;;5027966;28;36067;-62
2023/06/22 08:30:56;;;;;;;26.17;19.00;;;33.00;73.40;;;;;;5026092;28;36633;-62
2023/06/22 08:33:28;;;;;;;28.20;21.02;;;33.40;73.30;;;;;;5034479;28;37918;-62
2023/06/22 08:35:59;;;;;;;25.90;19.30;;;33.50;72.90;;;;;;4987808;28;39767;-63
2023/06/22 08:38:25;;;;;;;22.58;19.50;;;33.60;72.10;;;;;;4993247;28;40194;-63
2023/06/22 08:40:51;;;;;;;22.67;18.60;;;33.70;73.80;;;;;;5027765;28;40722;-63
2023/06/22 08:43:17;;;;;;;29.73;19.33;;;33.60;70.50;;;;;;4961778;28;41863;-63
2023/06/22 08:45:43;;;;;;;27.13;19.67;;;33.90;72.00;;;;;;4950571;28;43809;-63
2023/06/22 08:48:09;;;;;;;43.97;19.23;;;34.10;73.50;;;;;;4961137;28;44974;-63
2023/06/22 08:50:35;;;;;;;27.73;18.58;;;34.60;72.40;;;;;;4983568;28;44181;-63
2023/06/22 08:53:09;;;;;;;24.33;17.65;;;34.90;72.90;;;;;;4973910;28;46415;-63
2023/06/22 08:55:35;;;;;;;22.33;17.42;;;35.00;65.00;;;;;;4985892;28;47560;-63
2023/06/22 08:58:01;;;;;;;32.60;20.15;;;35.20;66.50;;;;;;4989100;28;48485;-63
2023/06/22 09:00:32;;;;;;;25.90;17.48;;;35.20;69.10;;;;;;5008827;28;49653;-63
2023/06/22 09:02:58;;;;;;;22.02;17.02;;;35.20;66.40;;;;;;4983005;28;49884;-63
2023/06/22 09:05:26;;;;;;;23.55;17.08;;;35.40;63.50;;;;;;4966872;28;40027;-63
2023/06/22 09:07:54;;;;;;;20.98;17.23;;;35.20;62.70;;;;;;4964216;28;49707;-63
2023/06/22 09:10:20;;;;;;;20.88;16.45;;;35.00;60.70;;;;;;4996528;28;65779;-63
2023/06/22 09:12:46;;;;;;;21.33;16.65;;;35.20;60.40;;;;;;4967313;28;43323;-62
2023/06/22 09:15:12;;;;;;;25.70;17.17;;;34.60;59.70;;;;;;4993351;28;49472;-63
2023/06/22 09:17:39;;;;;;;24.45;16.80;;;34.90;63.60;;;;;;5015759;28;49465;-63
2023/06/22 09:20:07;;;;;;;19.63;15.52;;;35.20;63.80;;;;;;5006489;28;44778;-62
2023/06/22 09:22:33;;;;;;;21.30;15.63;;;35.30;62.50;;;;;;4988109;28;48653;-63
2023/06/22 09:25:02;;;;;;;20.10;16.08;;;35.70;62.90;;;;;;4988436;28;25033;-63
2023/06/22 09:27:28;;;;;;;26.67;15.52;;;35.70;60.00;;;;;;5003116;28;46884;-62
2023/06/22 09:29:54;;;;;;;16.42;14.18;;;35.60;60.80;;;;;;4973264;28;49483;-62
2023/06/22 09:32:23;;;;;;;20.20;13.57;;;35.90;57.40;;;;;;4991573;28;49685;-62
2023/06/22 09:34:49;;;;;;;19.67;14.27;;;34.70;57.90;;;;;;4956111;28;49722;-62
2023/06/22 09:37:15;;;;;;;22.17;15.65;;;35.30;59.20;;;;;;4986788;28;49540;-63
2023/06/22 09:39:42;;;;;;;17.70;13.68;;;35.30;57.20;;;;;;4966804;28;74284;-63
2023/06/22 09:42:09;;;;;;;24.50;13.95;;;35.70;56.80;;;;;;4988333;28;49287;-62
2023/06/22 09:44:36;;;;;;;24.55;14.52;;;35.40;57.40;;;;;;4971316;28;50060;-63
2023/06/22 09:47:02;;;;;;;24.42;14.40;;;35.60;56.80;;;;;;4954048;28;48702;-63
2023/06/22 09:49:28;;;;;;;27.02;14.32;;;36.00;59.80;;;;;;4940608;28;25450;-62
2023/06/22 09:51:54;;;;;;;25.27;15.05;;;36.20;54.70;;;;;;4938718;28;49241;-62
2023/06/22 09:54:20;;;;;;;19.40;14.57;;;36.40;55.80;;;;;;4979730;28;49204;-62
2023/06/22 09:56:46;;;;;;;22.20;14.80;;;36.20;55.10;;;;;;4965828;28;25429;-63
2023/06/22 09:59:12;;;;;;;30.63;16.08;;;36.40;56.60;;;;;;4947674;28;24934;-62
2023/06/22 10:01:38;;;;;;;20.48;15.13;;;36.90;57.60;;;;;;4933435;28;48880;-63
2023/06/22 10:04:04;;;;;;;24.27;15.60;;;36.70;53.00;;;;;;4932683;28;48885;-62
2023/06/22 10:06:30;;;;;;;24.65;15.10;;;36.60;56.20;;;;;;4901241;28;49674;-62
2023/06/22 10:08:56;;;;;;;19.98;14.48;;;36.80;53.80;;;;;;4891101;28;25025;-62
2023/06/22 10:11:28;;;;;;;20.23;14.35;;;36.30;52.90;;;;;;4923038;28;48886;-62
2023/06/22 10:13:55;;;;;;;22.17;14.73;;;36.40;53.60;;;;;;4924085;28;49066;-63
2023/06/22 10:16:23;;;;;;;19.58;14.52;;;36.60;51.20;;;;;;4940306;28;49124;-63
2023/06/22 10:18:49;;;;;;;26.20;15.50;;;36.40;50.70;;;;;;4929357;28;39533;-63
2023/06/22 10:21:16;;;;;;;19.38;13.98;;;36.30;53.80;;;;;;4962752;28;24974;-63
2023/06/22 10:23:42;;;;;;;21.02;14.32;;;36.40;55.20;;;;;;4964091;28;49141;-63
2023/06/22 10:26:08;;;;;;;21.90;14.85;;;36.60;58.20;;;;;;4930820;28;41986;-62
2023/06/22 10:28:34;;;;;;;20.95;14.30;;;37.00;52.50;;;;;;4983806;28;42739;-63
2023/06/22 10:31:00;;;;;;;19.20;14.82;;;37.20;53.50;;;;;;4993728;28;43480;-62
2023/06/22 10:33:26;;;;;;;21.20;14.63;;;37.40;51.40;;;;;;4995779;28;25279;-63
2023/06/22 10:35:52;;;;;;;20.48;14.75;;;37.50;52.60;;;;;;4990976;28;24935;-62
2023/06/22 10:38:18;;;;;;;26.75;15.20;;;37.70;47.60;;;;;;4981745;28;48792;-63
2023/06/22 10:40:44;;;;;;;20.48;14.82;;;36.80;49.00;;;;;;4981750;28;24874;-62
2023/06/22 10:43:10;;;;;;;26.45;15.98;;;36.40;50.80;;;;;;4978385;28;46430;-62
2023/06/22 10:45:36;;;;;;;22.70;15.18;;;36.60;51.20;;;;;;4967683;28;46211;-62
2023/06/22 10:48:08;;;;;;;19.77;15.35;;;37.10;50.80;;;;;;4931652;28;24954;-63
2023/06/22 10:50:34;;;;;;;24.02;15.45;;;36.60;50.30;;;;;;4907096;28;24946;-63
2023/06/22 10:53:00;;;;;;;19.63;14.88;;;36.40;53.00;;;;;;4934989;28;31624;-63
2023/06/22 10:55:27;;;;;;;26.38;15.18;;;36.90;52.60;;;;;;4957928;28;24978;-63
2023/06/22 11:00:31;;;;;;;19.65;14.55;;;37.50;51.90;;;;;;5151746;27;20134;-63
2023/06/22 11:02:58;;;;;;;19.58;14.38;;;37.50;50.50;;;;;;5114808;28;20043;-63
2023/06/22 11:05:24;;;;;;;20.25;15.00;;;37.70;47.70;;;;;;5015507;28;1988117;-63
2023/06/22 11:07:50;;;;;;;21.92;15.35;;;37.90;54.60;;;;;;5088190;28;20040;-63
2023/06/22 11:10:16;;;;;;;22.00;15.07;;;38.00;49.80;;;;;;5055762;28;20041;-63
2023/06/22 11:12:45;;;;;;;25.65;14.73;;;38.00;49.70;;;;;;5063776;28;20052;-63
2023/06/22 11:15:11;;;;;;;19.15;14.18;;;38.00;48.80;;;;;;5062032;28;20041;-63
2023/06/22 11:17:37;;;;;;;18.95;16.05;;;38.30;51.40;;;;;;5068287;28;20040;-63
2023/06/22 11:20:12;;;;;;;25.67;15.07;;;38.30;49.20;;;;;;5071745;28;20520;-63
2023/06/22 11:22:40;;;;;;;24.30;15.73;;;38.10;50.80;;;;;;5057127;28;20430;-63
2023/06/22 11:25:06;;;;;;;23.58;15.30;;;38.30;52.30;;;;;;5064263;28;20045;-63
2023/06/22 11:27:38;;;;;;;23.95;16.25;;;38.50;52.60;;;;;;5047281;28;20406;-63
2023/06/22 11:30:05;;;;;;;23.48;16.08;;;38.80;47.40;;;;;;5039447;28;20034;-63
2023/06/22 11:32:31;;;;;;;27.92;17.25;;;39.10;48.60;;;;;;5042453;28;20045;-65
2023/06/22 11:34:57;;;;;;;23.65;15.55;;;38.60;46.30;;;;;;5023498;28;20180;-65
2023/06/22 11:37:29;;;;;;;26.73;17.33;;;38.30;47.80;;;;;;5035922;28;20047;-65
2023/06/22 11:39:56;;;;;;;25.73;17.27;;;38.70;48.80;;;;;;4974114;28;20059;-65
2023/06/22 11:42:23;;;;;;;26.45;17.13;;;38.30;47.00;;;;;;4984295;28;20050;-65
2023/06/22 11:44:52;;;;;;;22.58;16.85;;;37.80;45.60;;;;;;5026374;28;20045;-65
2023/06/22 11:47:21;;;;;;;39.97;19.70;;;38.00;52.10;;;;;;4990898;28;20034;-65
2023/06/22 11:49:47;;;;;;;26.40;17.30;;;38.00;47.00;;;;;;5022391;28;20104;-65
2023/06/22 11:52:13;;;;;;;28.42;17.20;;;38.00;49.90;;;;;;5027697;28;20029;-64
2023/06/22 11:54:39;;;;;;;26.27;17.67;;;38.30;45.70;;;;;;5033798;28;20410;-65
2023/06/22 11:57:05;;;;;;;21.52;16.42;;;38.70;46.70;;;;;;4981062;28;20050;-65
2023/06/22 11:59:31;;;;;;;36.92;18.58;;;38.10;46.40;;;;;;4991383;28;20143;-64
2023/06/22 12:01:58;;;;;;;24.95;17.75;;;38.30;47.30;;;;;;5002114;28;20054;-64
2023/06/22 12:04:24;;;;;;;27.40;17.92;;;38.20;46.70;;;;;;4995319;28;20078;-65
2023/06/22 12:06:50;;;;;;;23.98;17.05;;;38.50;48.80;;;;;;4898705;29;20135;-65
2023/06/22 12:09:16;;;;;;;29.80;16.70;;;38.40;46.30;;;;;;4885752;29;23032;-65
2023/06/22 12:11:42;;;;;;;23.90;16.15;;;38.70;52.10;;;;;;4874480;29;20063;-65
2023/06/22 12:14:08;;;;;;;25.50;17.27;;;38.60;46.30;;;;;;4885582;28;20047;-65
2023/06/22 12:16:35;;;;;;;24.67;17.05;;;38.50;44.40;;;;;;5008478;28;20086;-64
2023/06/22 12:19:01;;;;;;;23.27;17.70;;;38.30;43.90;;;;;;5034375;28;20179;-64
2023/06/22 12:21:28;;;;;;;24.58;17.27;;;38.50;46.50;;;;;;5036624;28;20044;-65
2023/06/22 12:23:54;;;;;;;24.13;16.67;;;38.50;45.90;;;;;;5013800;28;20125;-65
2023/06/22 12:26:21;;;;;;;27.17;16.98;;;38.20;45.90;;;;;;5004513;28;20559;-65
2023/06/22 12:28:48;;;;;;;28.00;16.98;;;38.30;49.90;;;;;;4979697;28;20105;-64
2023/06/22 12:31:14;;;;;;;26.95;16.33;;;38.50;48.40;;;;;;4976954;28;20042;-65
2023/06/22 12:33:40;;;;;;;36.10;18.05;;;38.40;46.40;;;;;;4987640;28;20053;-65
2023/06/22 12:36:06;;;;;;;22.75;14.85;;;38.40;43.50;;;;;;5013873;28;20132;-65